createdAt,value
2019-02-09T00:01:10.254Z,2.52
2019-02-09T00:03:39.105Z,2.33
2019-02-09T00:06:07.804Z,2.62
2019-02-09T00:08:36.552Z,3.02
2019-02-09T00:11:05.559Z,2.70
2019-02-09T00:13:35.747Z,2.62
2019-02-09T00:16:04.862Z,2.90
2019-02-09T00:18:33.611Z,2.62
2019-02-09T00:21:02.297Z,3.33
2019-02-09T00:23:31.008Z,2.92
2019-02-09T00:25:59.750Z,3.10
2019-02-09T00:28:29.298Z,2.70
2019-02-09T00:30:57.962Z,2.90
2019-02-09T00:33:26.741Z,2.77
2019-02-09T00:35:55.429Z,2.60
2019-02-09T00:38:24.321Z,2.95
2019-02-09T00:40:53.021Z,2.45
2019-02-09T00:43:22.242Z,2.95
2019-02-09T00:45:50.941Z,2.45
2019-02-09T00:48:19.627Z,2.45
2019-02-09T00:50:50.662Z,2.80
2019-02-09T00:53:19.358Z,3.00
2019-02-09T00:55:48.025Z,2.67
2019-02-09T00:58:16.714Z,3.15
2019-02-09T01:00:45.360Z,3.02
2019-02-09T01:03:14.133Z,2.80
2019-02-09T01:05:44.635Z,2.60
2019-02-09T01:08:13.896Z,2.42
2019-02-09T01:10:42.645Z,3.10
2019-02-09T01:13:11.523Z,2.87
2019-02-09T01:15:40.220Z,2.52
2019-02-09T01:18:11.240Z,2.55
2019-02-09T01:20:39.956Z,2.80
2019-02-09T01:23:09.280Z,2.85
2019-02-09T01:25:38.070Z,2.40
2019-02-09T01:28:06.902Z,2.58
2019-02-09T01:30:36.756Z,3.02
2019-02-09T01:33:07.945Z,3.02
2019-02-09T01:35:36.650Z,2.72
2019-02-09T01:38:05.651Z,2.80
2019-02-09T01:40:34.335Z,2.90
2019-02-09T01:43:03.088Z,2.67
2019-02-09T01:45:32.921Z,2.85
2019-02-09T01:48:01.608Z,3.10
2019-02-09T01:50:31.269Z,2.72
2019-02-09T01:53:00.072Z,2.83
2019-02-09T01:55:29.516Z,2.58
2019-02-09T01:57:58.320Z,3.00
2019-02-09T02:00:29.050Z,2.25
2019-02-09T02:02:57.827Z,2.60
2019-02-09T02:05:26.592Z,2.80
2019-02-09T02:07:55.402Z,3.25
2019-02-09T02:10:35.182Z,3.65
2019-02-09T02:13:04.488Z,3.10
2019-02-09T02:15:33.241Z,3.35
2019-02-09T02:18:01.936Z,2.55
2019-02-09T02:20:31.293Z,3.50
2019-02-09T02:23:01.272Z,3.58
2019-02-09T02:25:30.027Z,2.62
2019-02-09T02:27:58.687Z,3.35
2019-02-09T02:30:32.097Z,3.10
2019-02-09T02:33:00.764Z,3.15
2019-02-09T02:35:29.556Z,3.10
2019-02-09T02:37:58.215Z,2.70
2019-02-09T02:40:26.929Z,3.25
2019-02-09T02:42:55.652Z,3.05
2019-02-09T02:45:24.440Z,3.20
2019-02-09T02:47:53.133Z,3.05
2019-02-09T02:50:21.832Z,3.40
2019-02-09T02:52:50.430Z,3.00
2019-02-09T02:55:20.767Z,3.25
2019-02-09T02:57:50.550Z,2.98
2019-02-09T03:00:31.676Z,3.62
2019-02-09T03:02:54.438Z,3.52
2019-02-09T03:05:23.793Z,3.47
2019-02-09T03:07:52.493Z,3.42
2019-02-09T03:10:21.276Z,3.40
2019-02-09T03:12:49.967Z,4.00
2019-02-09T03:15:28.998Z,3.25
2019-02-09T03:17:57.705Z,4.00
2019-02-09T03:20:26.450Z,3.22
2019-02-09T03:22:55.048Z,3.77
2019-02-09T03:25:25.548Z,3.08
2019-02-09T03:27:54.316Z,2.60
2019-02-09T03:30:22.939Z,2.40
2019-02-09T03:32:51.704Z,2.62
2019-02-09T03:35:20.476Z,2.10
2019-02-09T03:37:49.151Z,1.87
2019-02-09T03:40:18.861Z,3.45
2019-02-09T03:42:47.619Z,2.70
2019-02-09T03:45:21.349Z,2.40
2019-02-09T03:50:17.876Z,2.72
2019-02-09T03:52:46.571Z,2.90
2019-02-09T03:55:15.313Z,3.00
2019-02-09T03:57:44.221Z,3.08
2019-02-09T04:00:16.023Z,3.40
2019-02-09T04:02:44.492Z,3.20
2019-02-09T04:05:13.245Z,3.40
2019-02-09T04:07:41.975Z,3.62
2019-02-09T04:10:11.579Z,3.60
2019-02-09T04:12:40.346Z,3.15
2019-02-09T04:15:09.698Z,3.50
2019-02-09T04:17:38.453Z,3.67
2019-02-09T04:20:08.595Z,3.27
2019-02-09T04:22:37.299Z,3.02
2019-02-09T04:25:06.246Z,3.67
2019-02-09T04:27:37.290Z,3.17
2019-02-09T04:30:10.386Z,3.17
2019-02-09T04:32:38.753Z,3.77
2019-02-09T04:35:07.713Z,3.00
2019-02-09T04:37:36.402Z,3.33
2019-02-09T04:40:06.562Z,3.02
2019-02-09T04:42:35.279Z,3.52
2019-02-09T04:45:04.114Z,3.05
2019-02-09T04:47:32.790Z,3.25
2019-02-09T04:50:01.484Z,3.47
2019-02-09T04:52:30.208Z,2.70
2019-02-09T04:54:58.965Z,2.77
2019-02-09T04:57:27.640Z,2.65
2019-02-09T04:59:56.700Z,2.60
2019-02-09T05:02:27.481Z,2.62
2019-02-09T05:04:56.126Z,3.22
2019-02-09T05:07:25.478Z,3.00
2019-02-09T05:09:54.473Z,3.00
2019-02-09T05:12:23.160Z,2.87
2019-02-09T05:14:51.874Z,2.37
2019-02-09T05:17:20.530Z,2.47
2019-02-09T05:19:50.180Z,2.87
2019-02-09T05:22:18.866Z,3.00
2019-02-09T05:24:47.548Z,2.60
2019-02-09T05:27:16.252Z,2.47
2019-02-09T05:29:44.843Z,2.30
2019-02-09T05:32:15.625Z,1.90
2019-02-09T05:34:44.350Z,2.02
2019-02-09T05:37:13.061Z,2.40
2019-02-09T05:39:41.748Z,2.62
2019-02-09T05:42:10.468Z,2.30
2019-02-09T05:44:39.115Z,2.20
2019-02-09T05:47:08.986Z,2.25
2019-02-09T05:49:37.695Z,2.33
2019-02-09T05:52:08.654Z,2.50
2019-02-09T05:54:37.310Z,1.92
2019-02-09T05:57:05.975Z,2.67
2019-02-09T05:59:34.714Z,2.02
2019-02-09T06:02:03.457Z,2.30
2019-02-09T06:04:32.145Z,1.90
2019-02-09T06:07:00.843Z,1.90
2019-02-09T06:09:29.583Z,2.42
2019-02-09T06:11:58.578Z,2.42
2019-02-09T06:14:27.311Z,2.20
2019-02-09T06:16:55.993Z,2.47
2019-02-09T06:19:24.703Z,2.08
2019-02-09T06:21:53.439Z,2.40
2019-02-09T06:24:22.138Z,2.17
2019-02-09T06:26:50.806Z,2.20
2019-02-09T06:29:19.513Z,1.80
2019-02-09T06:31:48.277Z,1.80
2019-02-09T06:34:16.910Z,1.87
2019-02-09T06:36:45.543Z,1.85
2019-02-09T06:39:14.170Z,2.08
2019-02-09T06:41:42.855Z,1.82
2019-02-09T06:44:11.549Z,1.65
2019-02-09T06:46:41.502Z,1.35
2019-02-09T06:49:10.210Z,1.50
2019-02-09T06:51:38.920Z,1.50
2019-02-09T06:54:07.526Z,2.58
2019-02-09T06:56:36.278Z,1.52
2019-02-09T06:59:04.924Z,1.50
2019-02-09T07:01:33.685Z,1.70
2019-02-09T07:04:02.372Z,2.37
2019-02-09T07:06:31.056Z,1.85
2019-02-09T07:08:59.758Z,1.85
2019-02-09T07:11:28.518Z,2.15
2019-02-09T07:13:57.239Z,1.92
2019-02-09T07:16:38.332Z,2.00
2019-02-09T07:19:07.981Z,3.22
2019-02-09T07:21:36.735Z,1.90
2019-02-09T07:24:05.567Z,2.20
2019-02-09T07:26:34.129Z,1.62
2019-02-09T07:29:02.641Z,2.10
2019-02-09T07:31:31.129Z,1.65
2019-02-09T07:34:01.176Z,1.72
2019-02-09T08:29:28.642Z,2.47
2019-02-09T08:59:10.103Z,1.55
2019-02-09T09:31:37.759Z,1.80
2019-02-09T09:36:48.320Z,1.60
2019-02-09T09:39:17.005Z,1.20
2019-02-09T09:41:45.731Z,1.20
2019-02-09T09:44:19.433Z,1.10
2019-02-09T09:49:22.858Z,1.37
2019-02-09T09:51:59.165Z,1.22
2019-02-09T09:54:28.029Z,1.35
2019-02-09T09:57:43.432Z,1.52
2019-02-09T10:03:11.119Z,2.00
2019-02-09T10:05:47.090Z,1.67
2019-02-09T10:08:31.219Z,2.10
2019-02-09T10:14:19.584Z,1.90
2019-02-09T10:20:22.597Z,2.15
2019-02-09T10:28:36.389Z,2.35
2019-02-09T10:48:40.589Z,3.10
2019-02-09T10:51:10.402Z,2.52
2019-02-09T10:53:39.188Z,3.72
2019-02-09T10:56:08.506Z,2.75
2019-02-09T10:58:37.406Z,2.33
2019-02-09T11:01:20.010Z,2.62
2019-02-09T11:03:48.887Z,2.95
2019-02-09T11:06:17.689Z,3.33
2019-02-09T11:08:46.487Z,3.00
2019-02-09T11:11:15.316Z,3.30
2019-02-09T11:13:44.121Z,2.65
2019-02-09T11:16:13.059Z,2.33
2019-02-09T11:18:41.863Z,2.90
2019-02-09T11:21:13.212Z,2.10
2019-02-09T11:23:42.663Z,2.47
2019-02-09T11:26:11.782Z,2.40
2019-02-09T11:28:41.023Z,2.70
2019-02-09T11:31:19.348Z,2.90
2019-02-09T11:33:43.950Z,3.12
2019-02-09T11:36:12.819Z,2.37
2019-02-09T11:38:42.039Z,3.33
2019-02-09T11:41:11.098Z,2.87
2019-02-09T11:43:39.970Z,2.98
2019-02-09T11:46:11.443Z,2.95
2019-02-09T11:48:40.713Z,3.87
2019-02-09T11:54:54.744Z,3.37
2019-02-09T11:57:23.441Z,3.37
2019-02-09T11:59:52.374Z,3.08
2019-02-09T12:02:21.649Z,2.58
2019-02-09T12:04:50.191Z,2.95
2019-02-09T12:07:19.050Z,3.25
2019-02-09T12:09:47.827Z,2.92
2019-02-09T12:12:22.617Z,3.02
2019-02-09T12:14:51.859Z,3.15
2019-02-09T12:17:20.608Z,2.35
2019-02-09T12:19:49.429Z,2.22
2019-02-09T12:22:17.934Z,2.65
2019-02-09T12:24:46.412Z,2.70
2019-02-09T12:27:18.775Z,3.37
2019-02-09T12:29:47.458Z,2.37
2019-02-09T12:32:17.398Z,2.83
2019-02-09T12:34:45.972Z,2.90
2019-02-09T12:37:20.834Z,4.65
2019-02-09T12:39:52.806Z,2.87
2019-02-09T12:42:21.457Z,2.67
2019-02-09T12:44:50.061Z,2.72
2019-02-09T12:47:18.727Z,2.92
2019-02-09T12:49:47.357Z,2.65
2019-02-09T12:52:15.987Z,2.70
2019-02-09T12:54:44.536Z,2.30
